createdAt,value
2023-05-13T00:01:51.217Z,15.69
2023-05-13T00:04:17.604Z,15.77
2023-05-13T00:06:43.973Z,15.92
2023-05-13T00:09:10.349Z,15.96
2023-05-13T00:11:36.704Z,15.92
2023-05-13T00:14:03.086Z,15.98
2023-05-13T00:16:29.488Z,16.01
2023-05-13T00:18:56.027Z,16.03
2023-05-13T00:21:22.591Z,15.98
2023-05-13T00:23:48.997Z,15.92
2023-05-13T00:26:15.389Z,15.86
2023-05-13T00:28:41.755Z,15.80
2023-05-13T00:31:08.220Z,15.63
2023-05-13T00:33:34.587Z,15.51
2023-05-13T00:36:00.962Z,15.41
2023-05-13T00:38:27.363Z,15.35
2023-05-13T00:40:53.722Z,15.32
2023-05-13T00:43:20.116Z,15.35
2023-05-13T00:45:46.523Z,15.22
2023-05-13T00:48:12.933Z,15.02
2023-05-13T00:50:39.284Z,15.07
2023-05-13T00:53:05.669Z,14.98
2023-05-13T00:55:32.044Z,14.93
2023-05-13T00:57:58.385Z,15.02
2023-05-13T01:00:24.780Z,15.01
2023-05-13T01:02:51.271Z,14.97
2023-05-13T01:05:17.711Z,14.99
2023-05-13T01:07:44.071Z,15.06
2023-05-13T01:10:10.465Z,15.11
2023-05-13T01:12:36.843Z,15.15
2023-05-13T01:15:03.199Z,15.17
2023-05-13T01:17:29.614Z,15.21
2023-05-13T01:19:56.005Z,15.17
2023-05-13T01:22:22.366Z,15.16
2023-05-13T01:24:48.741Z,15.21
2023-05-13T01:27:15.141Z,15.23
2023-05-13T01:29:41.531Z,15.19
2023-05-13T01:32:07.908Z,15.11
2023-05-13T01:34:34.293Z,15.03
2023-05-13T01:37:00.686Z,14.97
2023-05-13T01:39:27.062Z,14.92
2023-05-13T01:41:53.446Z,14.97
2023-05-13T01:44:19.840Z,14.97
2023-05-13T01:46:46.250Z,15.00
2023-05-13T01:49:12.643Z,15.01
2023-05-13T01:51:39.018Z,14.99
2023-05-13T01:54:05.372Z,14.91
2023-05-13T01:56:31.721Z,14.91
2023-05-13T01:58:58.118Z,14.92
2023-05-13T02:01:24.505Z,14.97
2023-05-13T02:03:50.956Z,14.90
2023-05-13T02:06:17.356Z,14.76
2023-05-13T02:08:43.734Z,14.73
2023-05-13T02:11:10.100Z,14.63
2023-05-13T02:13:36.445Z,14.65
2023-05-13T02:16:03.960Z,14.63
2023-05-13T02:18:30.327Z,14.52
2023-05-13T02:20:56.741Z,14.55
2023-05-13T02:23:23.080Z,14.56
2023-05-13T02:25:49.423Z,14.52
2023-05-13T02:28:15.806Z,14.55
2023-05-13T02:30:42.155Z,14.51
2023-05-13T02:33:08.535Z,14.57
2023-05-13T02:35:34.907Z,14.55
2023-05-13T02:38:01.317Z,14.52
2023-05-13T02:40:27.725Z,14.51
2023-05-13T02:42:54.114Z,14.44
2023-05-13T02:45:20.473Z,14.17
2023-05-13T02:47:46.854Z,14.14
2023-05-13T02:50:13.220Z,14.25
2023-05-13T02:52:39.563Z,14.17
2023-05-13T02:55:06.030Z,14.16
2023-05-13T02:57:32.451Z,14.23
2023-05-13T02:59:58.846Z,14.29
2023-05-13T03:02:25.262Z,14.38
2023-05-13T03:04:51.649Z,14.40
2023-05-13T03:07:17.986Z,14.44
2023-05-13T03:09:44.375Z,14.48
2023-05-13T03:12:10.769Z,14.47
2023-05-13T03:14:37.165Z,14.48
2023-05-13T03:17:03.518Z,14.49
2023-05-13T03:19:29.860Z,14.52
2023-05-13T03:21:56.205Z,14.65
2023-05-13T03:24:22.604Z,14.72
2023-05-13T03:26:49.003Z,14.75
2023-05-13T03:29:15.409Z,14.79
2023-05-13T03:31:41.841Z,14.88
2023-05-13T03:34:08.228Z,14.92
2023-05-13T03:36:34.608Z,14.92
2023-05-13T03:39:01.010Z,14.92
2023-05-13T03:41:27.397Z,14.78
2023-05-13T03:43:53.746Z,14.79
2023-05-13T03:46:20.115Z,14.80
2023-05-13T03:48:46.542Z,14.74
2023-05-13T03:51:12.918Z,14.75
2023-05-13T03:53:39.289Z,14.76
2023-05-13T03:56:05.655Z,14.81
2023-05-13T03:58:32.002Z,14.85
2023-05-13T04:00:58.380Z,14.84
2023-05-13T04:03:24.807Z,14.63
2023-05-13T04:05:51.265Z,14.51
2023-05-13T04:08:17.642Z,14.63
2023-05-13T04:10:44.018Z,14.54
2023-05-13T04:13:10.406Z,14.62
2023-05-13T04:15:36.764Z,14.66
2023-05-13T04:18:03.159Z,14.62
2023-05-13T04:20:29.514Z,14.47
2023-05-13T04:22:55.909Z,14.45
2023-05-13T04:25:22.295Z,14.52
2023-05-13T04:27:48.689Z,14.39
2023-05-13T04:30:15.043Z,14.37
2023-05-13T04:32:41.433Z,14.48
2023-05-13T04:35:07.826Z,14.45
2023-05-13T04:37:34.186Z,14.33
2023-05-13T04:40:00.564Z,14.42
2023-05-13T04:42:26.953Z,14.37
2023-05-13T04:44:53.319Z,14.45
2023-05-13T04:47:19.718Z,14.35
2023-05-13T04:49:46.167Z,14.49
2023-05-13T04:52:13.133Z,14.43
2023-05-13T04:54:39.516Z,14.43
2023-05-13T04:57:05.897Z,14.49
2023-05-13T04:59:32.254Z,14.47
2023-05-13T05:01:58.703Z,14.55
2023-05-13T05:04:25.125Z,14.54
2023-05-13T05:06:51.591Z,14.50
2023-05-13T05:09:17.980Z,14.60
2023-05-13T05:11:44.342Z,14.61
2023-05-13T05:14:10.736Z,14.66
2023-05-13T05:16:37.148Z,14.73
2023-05-13T05:19:03.579Z,14.73
2023-05-13T05:21:29.923Z,14.74
2023-05-13T05:23:56.304Z,14.74
2023-05-13T05:26:22.688Z,14.76
2023-05-13T05:28:49.041Z,14.78
2023-05-13T05:31:15.392Z,14.73
2023-05-13T05:33:41.739Z,14.56
2023-05-13T05:36:08.125Z,14.44
2023-05-13T05:38:34.480Z,14.42
2023-05-13T05:41:00.826Z,14.54
2023-05-13T05:43:27.208Z,14.65
2023-05-13T05:45:53.629Z,14.73
2023-05-13T05:48:20.093Z,14.78
2023-05-13T05:50:46.431Z,14.72
2023-05-13T05:53:12.811Z,14.85
2023-05-13T05:55:39.159Z,14.81
2023-05-13T05:58:05.571Z,14.79
2023-05-13T06:00:32.049Z,14.93
2023-05-13T06:02:58.484Z,15.10
2023-05-13T06:05:24.926Z,15.21
2023-05-13T06:07:51.305Z,15.17
2023-05-13T06:10:17.664Z,15.19
2023-05-13T06:12:44.052Z,15.26
2023-05-13T06:15:10.446Z,15.36
2023-05-13T06:17:36.826Z,15.36
2023-05-13T06:20:03.227Z,15.44
2023-05-13T06:22:29.608Z,15.36
2023-05-13T06:24:55.945Z,15.45
2023-05-13T06:27:22.335Z,15.37
2023-05-13T06:29:48.678Z,15.49
2023-05-13T06:32:15.025Z,15.60
2023-05-13T06:34:41.405Z,15.69
2023-05-13T06:37:07.748Z,15.69
2023-05-13T06:39:34.136Z,15.71
2023-05-13T06:42:00.528Z,15.78
2023-05-13T06:44:26.912Z,15.79
2023-05-13T06:46:53.349Z,15.75
2023-05-13T06:49:19.728Z,15.63
2023-05-13T06:51:46.310Z,15.56
2023-05-13T06:54:12.681Z,15.63
2023-05-13T06:56:39.078Z,15.56
2023-05-13T06:59:05.431Z,15.50
2023-05-13T07:01:31.998Z,15.41
2023-05-13T07:03:58.436Z,15.28
2023-05-13T07:06:24.840Z,15.33
2023-05-13T07:08:51.185Z,15.32
2023-05-13T07:11:17.565Z,15.33
2023-05-13T07:13:43.957Z,15.48
2023-05-13T07:16:10.367Z,15.59
2023-05-13T07:18:36.776Z,15.81
2023-05-13T07:21:03.131Z,15.83
2023-05-13T07:23:29.505Z,15.95
2023-05-13T07:25:55.902Z,16.03
2023-05-13T07:28:22.289Z,16.16
2023-05-13T07:30:48.696Z,16.19
2023-05-13T07:33:15.132Z,16.04
2023-05-13T07:35:41.483Z,16.29
2023-05-13T07:38:07.831Z,16.44
2023-05-13T07:40:34.165Z,16.29
2023-05-13T07:43:00.547Z,16.33
2023-05-13T07:45:26.894Z,16.28
2023-05-13T07:47:53.292Z,16.36
2023-05-13T07:50:19.639Z,16.50
2023-05-13T07:52:45.970Z,16.40
2023-05-13T07:55:12.356Z,16.45
2023-05-13T07:57:38.750Z,16.68
2023-05-13T08:00:05.144Z,16.65
2023-05-13T08:02:31.582Z,16.56
2023-05-13T08:04:58.116Z,16.49
2023-05-13T08:07:24.585Z,16.60
2023-05-13T08:09:50.922Z,16.84
2023-05-13T08:12:17.255Z,16.90
2023-05-13T08:14:43.633Z,16.90
2023-05-13T08:17:09.982Z,16.94
2023-05-13T08:19:36.386Z,16.97
2023-05-13T08:22:02.803Z,17.09
2023-05-13T08:24:29.155Z,16.97
2023-05-13T08:26:55.528Z,17.19
2023-05-13T08:29:21.896Z,17.37
2023-05-13T08:31:48.338Z,17.37
2023-05-13T08:34:14.724Z,17.35
2023-05-13T08:36:41.073Z,17.38
2023-05-13T08:39:07.467Z,17.47
2023-05-13T08:41:33.872Z,17.45
2023-05-13T08:44:00.272Z,17.42
2023-05-13T08:46:26.702Z,17.63
2023-05-13T08:48:53.075Z,17.85
2023-05-13T08:51:19.452Z,17.97
2023-05-13T08:53:45.801Z,17.76
2023-05-13T08:56:12.138Z,18.03
2023-05-13T08:58:38.517Z,18.04
2023-05-13T09:01:04.921Z,17.87
2023-05-13T09:03:31.274Z,18.03
2023-05-13T09:05:57.663Z,18.09
2023-05-13T09:08:24.019Z,18.22
2023-05-13T09:10:50.377Z,18.26
2023-05-13T09:13:16.730Z,18.12
2023-05-13T09:15:43.119Z,18.17
2023-05-13T09:18:09.661Z,18.07
2023-05-13T09:20:36.047Z,18.04
2023-05-13T09:23:02.445Z,17.93
2023-05-13T09:25:28.803Z,17.70
2023-05-13T09:27:55.221Z,17.50
2023-05-13T09:30:21.571Z,17.70
2023-05-13T09:32:47.970Z,17.71
2023-05-13T09:35:14.340Z,17.82
2023-05-13T09:37:40.727Z,17.60
2023-05-13T09:40:07.092Z,17.38
2023-05-13T09:42:33.430Z,17.57
2023-05-13T09:44:59.759Z,17.56
2023-05-13T09:47:26.161Z,17.69
2023-05-13T09:49:52.539Z,17.82
2023-05-13T09:52:18.888Z,17.87
2023-05-13T09:54:45.287Z,17.84
2023-05-13T09:57:11.670Z,17.91
2023-05-13T09:59:38.038Z,18.11
2023-05-13T10:02:04.368Z,18.20
2023-05-13T10:04:30.701Z,18.12
2023-05-13T10:06:57.048Z,18.10
2023-05-13T10:09:23.434Z,18.17
2023-05-13T10:11:49.822Z,18.30
2023-05-13T10:14:16.224Z,18.39
2023-05-13T10:16:42.651Z,18.61
2023-05-13T10:19:09.115Z,18.70
2023-05-13T10:21:35.604Z,18.83
2023-05-13T10:24:02.026Z,18.97
2023-05-13T10:26:28.391Z,19.26
2023-05-13T10:28:54.790Z,19.23
2023-05-13T10:31:21.206Z,19.26
2023-05-13T10:33:47.581Z,19.27
2023-05-13T10:36:13.952Z,19.27
2023-05-13T10:38:40.319Z,19.28
2023-05-13T10:41:06.656Z,19.06
2023-05-13T10:43:33.051Z,18.73
2023-05-13T10:45:59.434Z,18.65
2023-05-13T10:48:25.878Z,18.62
2023-05-13T10:50:52.454Z,18.59
2023-05-13T10:53:18.996Z,18.73
2023-05-13T10:55:45.393Z,18.80
2023-05-13T10:58:11.788Z,18.92
2023-05-13T11:00:38.184Z,19.00
2023-05-13T11:03:04.551Z,19.13
2023-05-13T11:05:30.978Z,19.34
2023-05-13T11:07:57.351Z,19.32
2023-05-13T11:10:23.744Z,19.42
2023-05-13T11:12:50.132Z,19.54
2023-05-13T11:15:16.487Z,19.54
2023-05-13T11:17:42.908Z,19.58
2023-05-13T11:20:09.285Z,19.33
2023-05-13T11:22:35.618Z,19.25
2023-05-13T11:25:02.049Z,19.36
2023-05-13T11:27:28.410Z,19.49
2023-05-13T11:29:54.756Z,19.41
2023-05-13T11:32:21.099Z,19.53
2023-05-13T11:34:47.499Z,19.47
2023-05-13T11:37:13.832Z,19.60
2023-05-13T11:39:40.222Z,19.68
2023-05-13T11:42:06.598Z,19.80
2023-05-13T11:44:32.976Z,19.80
2023-05-13T11:46:59.379Z,20.01
2023-05-13T11:49:25.736Z,20.08
2023-05-13T11:51:52.077Z,20.23
2023-05-13T11:54:18.432Z,20.49
2023-05-13T11:56:44.805Z,20.53
2023-05-13T11:59:11.165Z,20.25
2023-05-13T12:01:37.566Z,20.28
2023-05-13T12:04:03.960Z,20.39
2023-05-13T12:06:30.346Z,20.29
2023-05-13T12:08:56.760Z,20.30
2023-05-13T12:11:23.159Z,20.20
2023-05-13T12:13:49.501Z,20.08
2023-05-13T12:16:15.872Z,19.90
2023-05-13T12:18:42.371Z,19.74
2023-05-13T12:21:08.788Z,19.67
2023-05-13T12:23:35.155Z,19.70
2023-05-13T12:26:01.550Z,19.76
2023-05-13T12:28:27.913Z,19.62
2023-05-13T12:30:54.353Z,19.54
2023-05-13T12:33:20.773Z,19.60
2023-05-13T12:35:47.161Z,19.37
2023-05-13T12:38:13.506Z,19.56
2023-05-13T12:40:39.878Z,19.73
2023-05-13T12:43:06.221Z,19.96
2023-05-13T12:45:32.591Z,20.15
2023-05-13T12:47:59.021Z,20.31
2023-05-13T12:50:25.383Z,20.47
2023-05-13T12:52:51.765Z,20.61
2023-05-13T12:55:18.106Z,20.58
2023-05-13T12:57:44.485Z,20.74
2023-05-13T13:00:10.847Z,20.75
2023-05-13T13:02:37.278Z,20.87
2023-05-13T13:05:03.758Z,20.83
2023-05-13T13:07:30.149Z,20.75
2023-05-13T13:09:56.535Z,20.57
2023-05-13T13:12:22.879Z,20.50
2023-05-13T13:14:49.254Z,20.30
2023-05-13T13:17:15.639Z,20.24
2023-05-13T13:19:41.994Z,20.04
2023-05-13T13:22:08.377Z,19.86
2023-05-13T13:24:34.743Z,19.75
2023-05-13T13:27:01.094Z,19.69
2023-05-13T13:29:27.492Z,19.61
2023-05-13T13:31:53.900Z,19.37
2023-05-13T13:34:20.299Z,19.40
2023-05-13T13:36:46.646Z,19.42
2023-05-13T13:39:12.987Z,19.39
2023-05-13T13:41:39.338Z,19.49
2023-05-13T13:44:05.716Z,19.53
2023-05-13T13:46:32.138Z,19.44
2023-05-13T13:48:58.494Z,19.65
2023-05-13T13:51:24.883Z,19.66
2023-05-13T13:53:51.233Z,19.69
2023-05-13T13:56:17.622Z,19.77
2023-05-13T13:58:43.979Z,19.76
2023-05-13T14:01:10.357Z,19.76
2023-05-13T14:03:36.817Z,19.73
2023-05-13T14:06:03.296Z,19.72
2023-05-13T14:08:29.630Z,19.74
2023-05-13T14:10:55.966Z,19.58
2023-05-13T14:13:22.372Z,19.59
2023-05-13T14:15:48.801Z,19.71
2023-05-13T14:18:15.215Z,19.68
2023-05-13T14:20:41.605Z,19.67
2023-05-13T14:23:07.995Z,19.65
2023-05-13T14:25:34.392Z,19.55
2023-05-13T14:28:00.753Z,19.63
2023-05-13T14:30:27.129Z,19.44
2023-05-13T14:32:53.547Z,19.45
2023-05-13T14:35:19.949Z,19.38
2023-05-13T14:37:46.331Z,19.49
2023-05-13T14:40:12.726Z,19.51
2023-05-13T14:42:39.113Z,19.33
2023-05-13T14:45:05.459Z,19.05
2023-05-13T14:47:31.855Z,19.00
2023-05-13T14:49:58.276Z,18.92
2023-05-13T14:52:24.703Z,18.77
2023-05-13T14:54:51.106Z,18.80
2023-05-13T14:57:17.447Z,18.82
2023-05-13T14:59:43.810Z,18.90
2023-05-13T15:02:10.213Z,18.93
2023-05-13T15:04:36.705Z,18.88
2023-05-13T15:07:03.103Z,18.88
2023-05-13T15:09:29.461Z,18.85
2023-05-13T15:11:55.858Z,18.85
2023-05-13T15:14:22.213Z,18.70
2023-05-13T15:16:48.591Z,18.54
2023-05-13T15:19:15.064Z,18.59
2023-05-13T15:21:41.466Z,18.59
2023-05-13T15:24:07.858Z,18.43
2023-05-13T15:26:34.209Z,18.24
2023-05-13T15:29:00.591Z,18.25
2023-05-13T15:31:26.993Z,18.21
2023-05-13T15:33:53.620Z,18.18
2023-05-13T15:36:20.039Z,18.08
2023-05-13T15:38:46.471Z,17.96
2023-05-13T15:41:12.868Z,17.79
2023-05-13T15:43:39.268Z,17.61
2023-05-13T15:46:05.774Z,17.54
2023-05-13T15:48:32.199Z,17.48
2023-05-13T15:50:58.554Z,17.53
2023-05-13T15:53:24.899Z,17.61
2023-05-13T15:55:51.300Z,17.63
2023-05-13T15:58:17.685Z,17.65
2023-05-13T16:00:44.081Z,17.58
2023-05-13T16:03:10.469Z,17.43
2023-05-13T16:05:36.822Z,17.42
2023-05-13T16:08:03.168Z,17.42
2023-05-13T16:10:29.506Z,17.43
2023-05-13T16:12:55.900Z,17.39
2023-05-13T16:15:22.264Z,17.30
2023-05-13T16:17:48.609Z,17.16
2023-05-13T16:20:15.022Z,17.06
2023-05-13T16:22:41.418Z,17.01
2023-05-13T16:25:07.782Z,17.04
2023-05-13T16:27:34.164Z,17.05
2023-05-13T16:30:00.613Z,16.98
2023-05-13T16:32:27.051Z,17.00
2023-05-13T16:34:53.561Z,16.99
2023-05-13T16:37:19.910Z,16.84
2023-05-13T16:39:46.263Z,16.72
2023-05-13T16:42:12.642Z,16.63
2023-05-13T16:44:39.011Z,16.62
2023-05-13T16:47:05.389Z,16.54
2023-05-13T16:49:31.754Z,16.49
2023-05-13T16:51:58.090Z,16.50
2023-05-13T16:54:24.463Z,16.54
2023-05-13T16:56:50.826Z,16.49
2023-05-13T16:59:17.204Z,16.51
2023-05-13T17:01:43.975Z,16.55
2023-05-13T17:04:10.417Z,16.55
2023-05-13T17:06:36.759Z,16.61
2023-05-13T17:09:03.111Z,16.63
2023-05-13T17:11:29.471Z,16.65
2023-05-13T17:13:55.857Z,16.64
2023-05-13T17:16:22.248Z,16.69
2023-05-13T17:18:48.670Z,16.67
2023-05-13T17:21:15.045Z,16.61
2023-05-13T17:23:41.396Z,16.61
2023-05-13T17:26:07.816Z,16.65
2023-05-13T17:28:34.217Z,16.69
2023-05-13T17:31:00.698Z,16.70
2023-05-13T17:33:27.219Z,16.75
2023-05-13T17:35:53.571Z,16.76
2023-05-13T17:38:19.944Z,16.65
2023-05-13T17:40:46.300Z,16.46
2023-05-13T17:43:12.643Z,16.29
2023-05-13T17:45:39.108Z,16.16
2023-05-13T17:48:05.616Z,16.07
2023-05-13T17:50:32.078Z,16.21
2023-05-13T17:52:58.505Z,16.25
2023-05-13T17:55:24.854Z,16.10
2023-05-13T17:57:51.190Z,15.97
2023-05-13T18:00:17.572Z,15.87
2023-05-13T18:02:43.979Z,15.84
2023-05-13T18:05:10.411Z,15.89
2023-05-13T18:07:36.800Z,15.96
2023-05-13T18:10:03.207Z,15.97
2023-05-13T18:12:29.624Z,15.94
2023-05-13T18:14:55.998Z,15.92
2023-05-13T18:17:22.375Z,15.92
2023-05-13T18:19:48.771Z,15.96
2023-05-13T18:22:15.159Z,16.01
2023-05-13T18:24:41.526Z,15.99
2023-05-13T18:27:07.915Z,15.99
2023-05-13T18:29:34.248Z,16.17
2023-05-13T18:32:00.671Z,16.12
2023-05-13T18:34:27.053Z,16.01
2023-05-13T18:36:53.446Z,15.91
2023-05-13T18:39:19.864Z,15.87
2023-05-13T18:41:46.251Z,15.88
2023-05-13T18:44:12.646Z,15.89
2023-05-13T18:46:39.034Z,15.87
2023-05-13T18:49:05.445Z,15.82
2023-05-13T18:51:31.826Z,15.75
2023-05-13T18:53:58.240Z,15.76
2023-05-13T18:56:24.654Z,15.75
2023-05-13T18:58:51.006Z,15.74
2023-05-13T19:01:17.485Z,15.76
2023-05-13T19:03:44.138Z,15.79
2023-05-13T19:06:10.584Z,15.77
2023-05-13T19:08:36.969Z,15.86
2023-05-13T19:11:03.317Z,15.90
2023-05-13T19:13:39.777Z,15.94
2023-05-13T19:16:12.452Z,15.94
2023-05-13T19:18:38.854Z,15.86
2023-05-13T19:21:05.267Z,15.82
2023-05-13T19:23:31.653Z,15.93
2023-05-13T19:25:58.053Z,15.91
2023-05-13T19:28:24.930Z,15.96
2023-05-13T19:30:51.316Z,16.03
2023-05-13T19:33:17.742Z,16.04
2023-05-13T19:35:44.098Z,16.08
2023-05-13T19:38:10.456Z,15.92
2023-05-13T19:40:36.847Z,15.85
2023-05-13T19:43:03.238Z,15.98
2023-05-13T19:45:29.632Z,15.91
2023-05-13T19:47:56.231Z,15.91
2023-05-13T19:50:22.900Z,15.93
2023-05-13T19:52:49.512Z,15.94
2023-05-13T19:55:15.872Z,15.92
2023-05-13T19:57:42.247Z,15.86
2023-05-13T20:00:08.605Z,15.74
2023-05-13T20:02:35.111Z,15.74
2023-05-13T20:05:01.612Z,15.75
2023-05-13T20:07:28.007Z,15.68
2023-05-13T20:09:54.437Z,15.66
2023-05-13T20:12:20.814Z,15.61
2023-05-13T20:14:47.188Z,15.51
2023-05-13T20:17:13.606Z,15.45
2023-05-13T20:19:40.026Z,15.40
2023-05-13T20:22:06.398Z,15.36
2023-05-13T20:24:32.763Z,15.39
2023-05-13T20:26:59.150Z,15.37
2023-05-13T20:29:25.515Z,15.33
2023-05-13T20:31:51.926Z,15.34
2023-05-13T20:34:18.298Z,15.45
2023-05-13T20:36:44.665Z,15.49
2023-05-13T20:39:11.068Z,15.50
2023-05-13T20:41:37.469Z,15.53
2023-05-13T20:44:03.877Z,15.58
2023-05-13T20:46:30.404Z,15.63
2023-05-13T20:48:56.995Z,15.68
2023-05-13T20:51:23.367Z,15.68
2023-05-13T20:53:49.788Z,15.69
2023-05-13T20:56:16.181Z,15.64
2023-05-13T20:58:42.553Z,15.61
2023-05-13T21:01:08.986Z,15.65
2023-05-13T21:03:35.633Z,15.65
2023-05-13T21:06:02.056Z,15.56
2023-05-13T21:08:28.470Z,15.54
2023-05-13T21:10:54.913Z,15.55
2023-05-13T21:13:21.275Z,15.58
2023-05-13T21:15:47.642Z,15.55
2023-05-13T21:18:14.062Z,15.49
2023-05-13T21:20:40.482Z,15.45
2023-05-13T21:23:06.833Z,15.45
2023-05-13T21:25:33.154Z,15.53
2023-05-13T21:27:59.494Z,15.59
2023-05-13T21:30:25.936Z,15.59
2023-05-13T21:32:52.465Z,15.65
2023-05-13T21:35:18.835Z,15.63
2023-05-13T21:37:47.205Z,15.56
2023-05-13T21:40:13.959Z,15.44
2023-05-13T21:42:40.311Z,15.31
2023-05-13T21:45:06.731Z,15.21
2023-05-13T21:47:33.170Z,15.20
2023-05-13T21:49:59.536Z,15.20
2023-05-13T21:52:25.896Z,15.17
2023-05-13T21:54:52.277Z,15.18
2023-05-13T21:57:18.627Z,15.18
2023-05-13T21:59:45.002Z,15.14
2023-05-13T22:02:11.396Z,15.10
2023-05-13T22:04:37.830Z,15.17
2023-05-13T22:07:04.209Z,15.25
2023-05-13T22:09:30.558Z,15.25
2023-05-13T22:11:56.905Z,15.38
2023-05-13T22:14:23.296Z,15.48
2023-05-13T22:17:00.886Z,15.46
2023-05-13T22:19:34.657Z,15.56
2023-05-13T22:22:01.075Z,15.60
2023-05-13T22:24:27.512Z,15.64
2023-05-13T22:26:53.882Z,15.70
2023-05-13T22:29:20.286Z,15.66
2023-05-13T22:31:46.695Z,15.70
2023-05-13T22:34:13.086Z,15.75
2023-05-13T22:36:41.148Z,15.74
2023-05-13T22:39:08.865Z,15.70
2023-05-13T22:41:35.256Z,15.65
2023-05-13T22:44:01.610Z,15.60
2023-05-13T22:46:28.039Z,15.60
2023-05-13T22:48:54.438Z,15.56
2023-05-13T22:51:20.799Z,15.59
2023-05-13T22:53:47.190Z,15.63
2023-05-13T22:56:13.554Z,15.50
2023-05-13T22:58:39.898Z,15.41
2023-05-13T23:01:06.244Z,15.32
2023-05-13T23:03:32.608Z,15.18
2023-05-13T23:05:59.017Z,15.07
2023-05-13T23:08:25.405Z,14.97
2023-05-13T23:10:51.754Z,14.94
2023-05-13T23:13:18.124Z,14.85
2023-05-13T23:15:44.547Z,14.85
2023-05-13T23:18:11.034Z,14.93
2023-05-13T23:20:37.408Z,15.13
2023-05-13T23:23:03.757Z,15.29
2023-05-13T23:25:30.136Z,15.43
2023-05-13T23:27:56.529Z,15.51
2023-05-13T23:30:23.226Z,15.53
2023-05-13T23:32:49.728Z,15.57
2023-05-13T23:35:16.128Z,15.56
2023-05-13T23:37:42.469Z,15.61
2023-05-13T23:40:08.838Z,15.64
2023-05-13T23:42:35.181Z,15.64
2023-05-13T23:45:01.548Z,15.62
2023-05-13T23:47:27.962Z,15.60
2023-05-13T23:49:54.405Z,15.60
2023-05-13T23:52:21.065Z,15.58
2023-05-13T23:54:47.521Z,15.53
2023-05-13T23:57:13.913Z,15.52
2023-05-13T23:59:40.307Z,15.45
